createdAt,value
2022-09-21T00:01:22.836Z,99.90
2022-09-21T00:03:54.248Z,99.90
2022-09-21T00:06:21.550Z,99.90
2022-09-21T00:08:48.504Z,99.90
2022-09-21T00:11:26.983Z,99.90
2022-09-21T00:13:55.188Z,99.90
2022-09-21T00:16:22.309Z,99.90
2022-09-21T00:18:49.039Z,99.90
2022-09-21T00:21:15.986Z,99.90
2022-09-21T00:23:42.892Z,99.90
2022-09-21T00:26:13.606Z,99.90
2022-09-21T00:28:40.674Z,99.90
2022-09-21T00:31:12.074Z,99.90
2022-09-21T00:33:39.669Z,99.90
2022-09-21T00:36:10.240Z,99.90
2022-09-21T00:38:36.992Z,99.90
2022-09-21T00:41:04.343Z,99.90
2022-09-21T00:43:35.861Z,99.90
2022-09-21T00:46:07.141Z,99.90
2022-09-21T00:48:33.963Z,99.90
2022-09-21T00:51:04.256Z,99.90
2022-09-21T00:53:32.023Z,99.90
2022-09-21T00:55:58.666Z,99.90
2022-09-21T00:58:31.658Z,99.90
2022-09-21T01:00:58.923Z,99.90
2022-09-21T01:03:25.850Z,99.90
2022-09-21T01:05:52.520Z,99.90
2022-09-21T01:08:19.887Z,99.90
2022-09-21T01:11:14.567Z,99.90
2022-09-21T01:14:07.837Z,99.90
2022-09-21T01:17:16.266Z,99.90
2022-09-21T01:19:53.162Z,99.90
2022-09-21T01:22:25.954Z,99.90
2022-09-21T01:25:01.456Z,99.90
2022-09-21T01:27:54.502Z,99.90
2022-09-21T01:30:21.955Z,99.90
2022-09-21T01:32:54.479Z,99.90
2022-09-21T01:35:30.090Z,99.90
2022-09-21T01:38:02.282Z,99.90
2022-09-21T01:40:35.318Z,99.90
2022-09-21T01:43:03.293Z,99.90
2022-09-21T01:45:32.192Z,99.90
2022-09-21T01:48:00.607Z,99.90
2022-09-21T01:50:30.221Z,99.90
2022-09-21T01:53:24.348Z,99.90
2022-09-21T01:55:58.235Z,99.90
2022-09-21T01:58:33.245Z,99.90
2022-09-21T02:01:00.306Z,99.90
2022-09-21T02:03:36.605Z,99.90
2022-09-21T02:06:03.763Z,99.90
2022-09-21T02:08:32.103Z,99.90
2022-09-21T02:11:02.528Z,99.90
2022-09-21T02:13:38.123Z,99.90
2022-09-21T02:16:07.996Z,99.90
2022-09-21T02:18:57.759Z,99.90
2022-09-21T02:21:31.826Z,99.90
2022-09-21T02:24:22.893Z,99.90
2022-09-21T02:26:55.305Z,99.90
2022-09-21T02:29:48.959Z,99.90
2022-09-21T02:32:24.420Z,99.90
2022-09-21T02:35:19.683Z,99.90
2022-09-21T02:37:56.060Z,99.90
2022-09-21T02:40:36.005Z,99.90
2022-09-21T02:43:15.642Z,99.90
2022-09-21T02:45:48.150Z,99.90
2022-09-21T02:48:20.671Z,99.90
2022-09-21T02:50:58.266Z,99.90
2022-09-21T02:53:27.266Z,99.90
2022-09-21T02:55:56.575Z,99.90
2022-09-21T02:58:24.296Z,99.90
2022-09-21T03:00:51.007Z,99.90
2022-09-21T03:03:19.227Z,99.90
2022-09-21T03:05:48.514Z,99.90
2022-09-21T03:08:16.180Z,99.90
2022-09-21T03:10:42.984Z,99.90
2022-09-21T03:13:10.020Z,99.90
2022-09-21T03:15:37.456Z,99.90
2022-09-21T03:18:05.205Z,99.90
2022-09-21T03:20:32.847Z,99.90
2022-09-21T03:23:00.258Z,99.90
2022-09-21T03:25:27.719Z,99.90
2022-09-21T03:27:54.605Z,99.90
2022-09-21T03:30:22.099Z,99.90
2022-09-21T03:32:52.432Z,99.90
2022-09-21T03:35:19.658Z,99.90
2022-09-21T03:37:46.358Z,99.90
2022-09-21T03:40:13.181Z,99.90
2022-09-21T03:42:40.753Z,99.90
2022-09-21T03:45:08.248Z,99.90
2022-09-21T03:47:35.100Z,99.90
2022-09-21T03:50:01.769Z,99.90
2022-09-21T03:52:28.538Z,99.90
2022-09-21T03:54:55.507Z,99.90
2022-09-21T03:57:22.263Z,99.90
2022-09-21T03:59:49.086Z,99.90
2022-09-21T04:02:16.840Z,99.90
2022-09-21T04:04:43.503Z,99.90
2022-09-21T04:07:10.151Z,99.90
2022-09-21T04:09:36.819Z,99.90
2022-09-21T04:12:03.562Z,99.90
2022-09-21T04:14:30.218Z,99.90
2022-09-21T04:16:57.229Z,99.90
2022-09-21T04:19:24.043Z,99.90
2022-09-21T04:21:51.511Z,99.90
2022-09-21T04:24:21.367Z,99.90
2022-09-21T04:26:48.253Z,99.90
2022-09-21T04:29:15.195Z,99.90
2022-09-21T04:31:42.034Z,99.90
2022-09-21T04:34:09.296Z,99.90
2022-09-21T04:36:36.872Z,99.90
2022-09-21T04:39:04.784Z,99.90
2022-09-21T04:41:31.441Z,99.90
2022-09-21T04:43:58.103Z,99.90
2022-09-21T04:46:24.795Z,99.90
2022-09-21T04:48:51.496Z,99.90
2022-09-21T04:51:18.198Z,99.90
2022-09-21T04:53:45.008Z,99.90
2022-09-21T04:56:14.131Z,99.90
2022-09-21T04:58:40.794Z,99.90
2022-09-21T05:01:07.766Z,99.90
2022-09-21T05:03:34.866Z,99.90
2022-09-21T05:06:02.554Z,99.90
2022-09-21T05:08:47.674Z,99.90
2022-09-21T05:11:16.330Z,99.90
2022-09-21T05:13:43.065Z,99.90
2022-09-21T05:16:11.030Z,99.90
2022-09-21T05:18:37.734Z,99.90
2022-09-21T05:21:04.757Z,99.90
2022-09-21T05:23:31.725Z,99.90
2022-09-21T05:25:58.917Z,99.90
2022-09-21T05:28:26.151Z,99.90
2022-09-21T05:31:16.762Z,99.90
2022-09-21T05:33:56.223Z,99.90
2022-09-21T05:36:40.653Z,99.90
2022-09-21T05:39:08.149Z,99.90
2022-09-21T05:41:35.234Z,99.90
2022-09-21T05:44:02.272Z,99.90
2022-09-21T05:46:41.942Z,99.90
2022-09-21T05:49:22.174Z,99.90
2022-09-21T05:52:04.015Z,99.90
2022-09-21T05:54:57.235Z,99.90
2022-09-21T05:57:33.298Z,99.90
2022-09-21T06:00:19.530Z,99.90
2022-09-21T06:02:50.986Z,99.90
2022-09-21T06:05:18.051Z,99.90
2022-09-21T06:07:44.758Z,99.90
2022-09-21T06:10:12.559Z,99.90
2022-09-21T06:12:39.611Z,99.90
2022-09-21T06:15:07.427Z,99.90
2022-09-21T06:17:34.098Z,99.90
2022-09-21T06:20:00.867Z,99.90
2022-09-21T06:22:27.534Z,99.90
2022-09-21T06:24:54.199Z,99.90
2022-09-21T06:27:20.952Z,99.90
2022-09-21T06:29:48.116Z,99.90
2022-09-21T06:32:14.780Z,99.90
2022-09-21T06:34:42.835Z,99.90
2022-09-21T06:37:42.205Z,99.90
2022-09-21T06:40:09.327Z,99.90
2022-09-21T06:42:35.992Z,99.90
2022-09-21T06:45:03.530Z,99.90
2022-09-21T06:47:30.300Z,99.90
2022-09-21T06:49:56.984Z,99.90
2022-09-21T06:52:23.706Z,99.90
2022-09-21T06:54:50.531Z,99.90
2022-09-21T06:57:17.735Z,99.90
2022-09-21T06:59:44.489Z,99.90
2022-09-21T07:02:12.813Z,99.90
2022-09-21T07:04:39.628Z,99.90
2022-09-21T07:07:06.316Z,99.90
2022-09-21T07:12:19.607Z,99.90
2022-09-21T07:14:46.374Z,99.90
2022-09-21T07:17:15.677Z,99.90
2022-09-21T07:19:42.614Z,99.90
2022-09-21T07:22:09.360Z,99.90
2022-09-21T07:24:36.003Z,99.90
2022-09-21T07:27:02.807Z,99.90
2022-09-21T07:29:30.295Z,99.90
2022-09-21T07:31:57.014Z,99.90
2022-09-21T07:34:23.729Z,99.90
2022-09-21T07:36:50.607Z,99.90
2022-09-21T07:39:17.350Z,99.90
2022-09-21T07:41:43.992Z,99.90
2022-09-21T07:44:10.876Z,99.90
2022-09-21T07:46:41.247Z,99.90
2022-09-21T07:49:11.772Z,99.90
2022-09-21T07:51:38.417Z,99.90
2022-09-21T07:54:05.678Z,99.90
2022-09-21T07:56:32.404Z,99.90
2022-09-21T07:59:08.130Z,99.90
2022-09-21T08:01:36.206Z,99.90
2022-09-21T08:04:03.315Z,99.90
2022-09-21T08:06:32.812Z,99.90
2022-09-21T08:09:00.788Z,99.90
2022-09-21T08:11:28.109Z,99.90
2022-09-21T08:13:56.131Z,99.90
2022-09-21T08:16:22.978Z,99.90
2022-09-21T08:18:51.265Z,99.90
2022-09-21T08:21:18.191Z,99.90
2022-09-21T08:23:44.997Z,99.90
2022-09-21T08:26:16.479Z,99.90
2022-09-21T08:28:43.805Z,99.90
2022-09-21T08:31:10.859Z,99.90
2022-09-21T08:33:37.593Z,99.90
2022-09-21T08:36:04.742Z,99.90
2022-09-21T08:38:35.593Z,99.90
2022-09-21T08:41:03.608Z,99.90
2022-09-21T08:43:39.226Z,99.90
2022-09-21T08:46:17.572Z,99.90
2022-09-21T08:48:49.303Z,99.90
2022-09-21T08:51:23.204Z,99.90
2022-09-21T08:53:52.268Z,99.90
2022-09-21T08:56:18.938Z,99.90
2022-09-21T08:58:45.693Z,99.90
2022-09-21T09:01:24.467Z,99.90
2022-09-21T09:04:06.527Z,99.90
2022-09-21T09:06:36.267Z,99.90
2022-09-21T09:09:11.371Z,99.90
2022-09-21T09:12:15.248Z,99.90
2022-09-21T09:14:41.916Z,99.90
2022-09-21T09:17:24.502Z,99.90
2022-09-21T09:20:01.900Z,99.90
2022-09-21T09:22:42.334Z,99.90
2022-09-21T09:25:27.220Z,99.90
2022-09-21T09:27:54.531Z,99.90
2022-09-21T09:30:25.626Z,99.90
2022-09-21T09:32:59.241Z,99.90
2022-09-21T09:35:36.175Z,99.90
2022-09-21T09:38:35.475Z,99.90
2022-09-21T09:41:19.593Z,99.90
2022-09-21T09:44:11.242Z,99.90
2022-09-21T09:47:10.130Z,99.90
2022-09-21T09:50:20.010Z,99.90
2022-09-21T09:52:46.978Z,99.90
2022-09-21T09:55:25.824Z,99.90
2022-09-21T09:57:54.179Z,99.90
2022-09-21T10:00:21.027Z,99.90
2022-09-21T10:02:52.257Z,99.90
2022-09-21T10:05:41.479Z,99.90
2022-09-21T10:08:27.688Z,99.90
2022-09-21T10:10:54.340Z,99.90
2022-09-21T10:13:37.542Z,99.90
2022-09-21T10:16:22.695Z,99.90
2022-09-21T10:18:56.391Z,99.90
2022-09-21T10:21:23.723Z,99.90
2022-09-21T10:24:19.367Z,99.90
2022-09-21T10:27:04.006Z,99.90
2022-09-21T10:29:41.014Z,99.90
2022-09-21T10:32:15.339Z,99.90
2022-09-21T10:34:59.282Z,99.90
2022-09-21T10:37:29.613Z,99.90
2022-09-21T10:39:57.165Z,99.90
2022-09-21T10:42:24.004Z,99.90
2022-09-21T10:44:52.641Z,99.90
2022-09-21T10:47:20.486Z,99.90
2022-09-21T10:50:27.143Z,99.90
2022-09-21T10:53:02.198Z,99.90
2022-09-21T10:55:30.126Z,99.90
2022-09-21T10:57:56.822Z,99.90
2022-09-21T11:00:31.791Z,99.90
2022-09-21T11:03:01.036Z,99.90
2022-09-21T11:05:32.829Z,99.90
2022-09-21T11:08:12.530Z,99.90
2022-09-21T11:11:29.417Z,99.90
2022-09-21T11:14:30.931Z,99.90
2022-09-21T11:17:04.070Z,99.90
2022-09-21T11:20:05.703Z,99.90
2022-09-21T11:22:36.958Z,99.90
2022-09-21T11:25:32.399Z,99.90
2022-09-21T11:28:22.243Z,99.90
2022-09-21T11:31:22.995Z,99.90
2022-09-21T11:33:55.678Z,99.90
2022-09-21T11:37:09.900Z,99.90
2022-09-21T11:40:01.133Z,99.90
2022-09-21T11:42:47.859Z,99.90
2022-09-21T11:45:49.783Z,99.90
2022-09-21T11:48:55.076Z,99.90
2022-09-21T11:51:28.678Z,99.90
2022-09-21T11:54:03.586Z,99.90
2022-09-21T11:56:59.379Z,99.90
2022-09-21T11:59:54.533Z,99.90
2022-09-21T12:02:36.495Z,99.60
2022-09-21T12:05:24.735Z,99.30
2022-09-21T12:07:57.257Z,99.50
2022-09-21T12:10:36.132Z,99.10
2022-09-21T12:13:24.787Z,98.80
2022-09-21T12:15:57.431Z,97.80
2022-09-21T12:18:33.339Z,98.20
2022-09-21T12:21:14.975Z,97.20
2022-09-21T12:23:46.706Z,97.50
2022-09-21T12:26:16.691Z,97.30
2022-09-21T12:28:51.933Z,96.30
2022-09-21T12:31:25.562Z,96.60
2022-09-21T12:33:57.363Z,95.90
2022-09-21T12:36:41.679Z,94.10
2022-09-21T12:39:25.454Z,93.70
2022-09-21T12:41:55.064Z,94.30
2022-09-21T12:44:30.137Z,93.10
2022-09-21T12:47:11.965Z,93.10
2022-09-21T12:49:44.904Z,93.40
2022-09-21T12:52:21.224Z,92.80
2022-09-21T12:54:54.377Z,92.40
2022-09-21T12:57:45.444Z,91.40
2022-09-21T13:00:22.546Z,91.50
2022-09-21T13:03:07.117Z,91.40
2022-09-21T13:06:27.393Z,91.00
2022-09-21T13:08:54.072Z,87.30
2022-09-21T13:11:21.639Z,88.00
2022-09-21T13:13:52.757Z,86.00
2022-09-21T13:16:42.787Z,86.20
2022-09-21T13:19:22.769Z,84.50
2022-09-21T13:22:19.752Z,84.00
2022-09-21T13:25:01.273Z,84.50
2022-09-21T13:27:57.976Z,84.80
2022-09-21T13:30:40.460Z,84.30
2022-09-21T13:33:19.753Z,83.10
2022-09-21T13:35:51.618Z,81.30
2022-09-21T13:38:31.043Z,81.30
2022-09-21T13:41:45.547Z,80.50
2022-09-21T13:44:34.354Z,80.30
2022-09-21T13:47:01.835Z,79.70
2022-09-21T13:49:33.656Z,77.90
2022-09-21T13:52:13.499Z,78.10
2022-09-21T13:54:46.121Z,79.90
2022-09-21T13:57:17.499Z,78.00
2022-09-21T13:59:45.327Z,78.90
2022-09-21T14:02:32.912Z,79.50
2022-09-21T14:05:08.654Z,79.30
2022-09-21T14:07:35.409Z,79.00
2022-09-21T14:10:04.927Z,79.40
2022-09-21T14:12:39.478Z,79.80
2022-09-21T14:15:19.401Z,78.90
2022-09-21T14:18:07.794Z,79.10
2022-09-21T14:20:39.518Z,79.30
2022-09-21T14:23:16.344Z,78.50
2022-09-21T14:25:56.414Z,80.00
2022-09-21T14:28:41.618Z,80.20
2022-09-21T14:31:22.268Z,81.40
2022-09-21T14:33:56.359Z,79.30
2022-09-21T14:36:31.147Z,81.40
2022-09-21T14:39:00.465Z,80.80
2022-09-21T14:41:32.955Z,80.20
2022-09-21T14:43:59.610Z,81.00
2022-09-21T14:46:54.478Z,80.40
2022-09-21T14:49:48.930Z,80.80
2022-09-21T14:52:32.132Z,79.30
2022-09-21T14:55:23.627Z,79.60
2022-09-21T14:58:23.183Z,78.90
2022-09-21T15:00:50.278Z,80.30
2022-09-21T15:03:30.795Z,79.80
2022-09-21T15:06:31.195Z,76.90
2022-09-21T15:09:33.227Z,77.40
2022-09-21T15:12:03.537Z,75.80
2022-09-21T15:14:37.401Z,73.70
2022-09-21T15:17:23.097Z,73.90
2022-09-21T15:19:50.122Z,75.10
2022-09-21T15:22:18.536Z,74.80
2022-09-21T15:24:50.380Z,75.00
2022-09-21T15:27:17.815Z,75.40
2022-09-21T15:29:49.643Z,75.90
2022-09-21T15:32:23.999Z,77.30
2022-09-21T15:35:19.456Z,77.80
2022-09-21T15:37:46.675Z,80.50
2022-09-21T15:40:23.282Z,82.50
2022-09-21T15:43:06.552Z,82.80
2022-09-21T15:45:46.779Z,81.70
2022-09-21T15:48:13.537Z,80.90
2022-09-21T15:50:43.019Z,79.90
2022-09-21T15:53:23.500Z,79.50
2022-09-21T15:55:50.114Z,79.10
2022-09-21T15:58:37.331Z,77.90
2022-09-21T16:01:15.198Z,78.60
2022-09-21T16:03:42.240Z,78.00
2022-09-21T16:06:27.552Z,77.40
2022-09-21T16:08:54.409Z,77.60
2022-09-21T16:11:35.241Z,76.90
2022-09-21T16:14:34.302Z,77.00
2022-09-21T16:17:12.893Z,75.90
2022-09-21T16:19:44.434Z,75.60
2022-09-21T16:22:12.915Z,76.60
2022-09-21T16:24:50.458Z,77.50
2022-09-21T16:27:18.508Z,78.30
2022-09-21T16:29:46.358Z,78.50
2022-09-21T16:32:20.428Z,78.30
2022-09-21T16:34:48.270Z,77.80
2022-09-21T16:37:28.199Z,78.60
2022-09-21T16:39:56.970Z,78.50
2022-09-21T16:42:24.375Z,78.00
2022-09-21T16:44:51.165Z,77.60
2022-09-21T16:47:25.252Z,77.10
2022-09-21T16:49:56.552Z,77.30
2022-09-21T16:52:24.118Z,77.50
2022-09-21T16:54:51.154Z,77.90
2022-09-21T16:57:18.055Z,78.80
2022-09-21T16:59:44.801Z,79.80
2022-09-21T17:02:12.330Z,80.80
2022-09-21T17:04:39.216Z,82.20
2022-09-21T17:07:06.106Z,84.60
2022-09-21T17:09:38.389Z,85.20
2022-09-21T17:12:07.791Z,86.30
2022-09-21T17:14:36.033Z,88.00
2022-09-21T17:17:22.223Z,88.90
2022-09-21T17:19:52.652Z,90.10
2022-09-21T17:22:19.464Z,90.40
2022-09-21T17:24:51.618Z,90.90
2022-09-21T17:27:25.372Z,91.30
2022-09-21T17:29:53.947Z,91.70
2022-09-21T17:32:22.124Z,92.10
2022-09-21T17:35:01.008Z,92.50
2022-09-21T17:37:27.707Z,92.80
2022-09-21T17:39:54.447Z,92.90
2022-09-21T17:42:22.999Z,93.00
2022-09-21T17:45:20.901Z,93.50
2022-09-21T17:47:50.219Z,93.80
2022-09-21T17:50:26.227Z,94.10
2022-09-21T17:53:12.459Z,94.40
2022-09-21T17:55:41.178Z,94.60
2022-09-21T17:58:47.310Z,95.00
2022-09-21T18:01:34.204Z,95.30
2022-09-21T18:04:02.271Z,95.90
2022-09-21T18:06:29.799Z,96.10
2022-09-21T18:08:57.388Z,96.40
2022-09-21T18:11:58.348Z,96.70
2022-09-21T18:14:41.611Z,97.00
2022-09-21T18:17:27.230Z,97.40
2022-09-21T18:20:10.882Z,97.80
2022-09-21T18:22:55.323Z,98.20
2022-09-21T18:25:29.070Z,98.60
2022-09-21T18:27:57.562Z,98.80
2022-09-21T18:30:26.202Z,99.20
2022-09-21T18:32:56.962Z,99.50
2022-09-21T18:35:45.858Z,99.70
2022-09-21T18:38:13.100Z,99.90
2022-09-21T18:40:55.175Z,99.90
2022-09-21T18:43:33.076Z,99.90
2022-09-21T18:46:19.709Z,99.90
2022-09-21T18:49:23.681Z,99.90
2022-09-21T18:52:41.311Z,99.90
2022-09-21T18:55:37.628Z,99.90
2022-09-21T18:58:08.686Z,99.90
2022-09-21T19:00:35.806Z,99.90
2022-09-21T19:03:17.025Z,99.90
2022-09-21T19:06:10.421Z,99.90
2022-09-21T19:08:55.948Z,99.90
2022-09-21T19:11:40.757Z,99.90
2022-09-21T19:14:33.103Z,99.90
2022-09-21T19:17:41.229Z,99.90
2022-09-21T19:20:34.284Z,99.90
2022-09-21T19:23:13.225Z,99.90
2022-09-21T19:25:47.267Z,99.90
2022-09-21T19:28:42.649Z,99.90
2022-09-21T19:31:15.071Z,99.90
2022-09-21T19:33:50.870Z,99.90
2022-09-21T19:36:18.687Z,99.90
2022-09-21T19:38:45.660Z,99.90
2022-09-21T19:41:32.940Z,99.90
2022-09-21T19:44:15.316Z,99.90
2022-09-21T19:47:00.635Z,99.90
2022-09-21T19:49:36.096Z,99.90
2022-09-21T19:52:04.322Z,99.90
2022-09-21T19:54:50.009Z,99.90
2022-09-21T19:57:37.041Z,99.90
2022-09-21T20:00:06.302Z,99.90
2022-09-21T20:03:09.339Z,99.90
2022-09-21T20:06:08.763Z,99.90
2022-09-21T20:09:06.432Z,99.90
2022-09-21T20:11:56.402Z,99.90
2022-09-21T20:14:26.232Z,99.90
2022-09-21T20:16:53.217Z,99.90
2022-09-21T20:19:22.364Z,99.90
2022-09-21T20:21:51.462Z,99.90
2022-09-21T20:24:40.046Z,99.90
2022-09-21T20:27:25.618Z,99.90
2022-09-21T20:29:52.345Z,99.90
2022-09-21T20:32:19.406Z,99.90
2022-09-21T20:34:46.083Z,99.90
2022-09-21T20:37:13.465Z,99.90
2022-09-21T20:39:40.349Z,99.90
2022-09-21T20:42:07.048Z,99.90
2022-09-21T20:44:33.828Z,99.90
2022-09-21T20:47:00.524Z,99.90
2022-09-21T20:49:27.248Z,99.90
2022-09-21T20:51:53.950Z,99.90
2022-09-21T20:54:20.874Z,99.90
2022-09-21T20:56:48.256Z,99.90
2022-09-21T20:59:15.277Z,99.90
2022-09-21T21:01:42.003Z,99.90
2022-09-21T21:04:08.859Z,99.90
2022-09-21T21:06:37.638Z,99.90
2022-09-21T21:09:04.366Z,99.90
2022-09-21T21:11:31.683Z,99.90
2022-09-21T21:13:58.411Z,99.90
2022-09-21T21:16:25.149Z,99.90
2022-09-21T21:18:51.877Z,99.90
2022-09-21T21:21:18.640Z,99.90
2022-09-21T21:24:07.920Z,99.90
2022-09-21T21:27:00.288Z,99.90
2022-09-21T21:29:21.831Z,99.90
2022-09-21T21:31:49.055Z,99.90
2022-09-21T21:34:16.075Z,99.90
2022-09-21T21:36:45.871Z,99.90
2022-09-21T21:39:12.542Z,99.90
2022-09-21T21:41:39.230Z,99.90
2022-09-21T21:44:05.909Z,99.90
2022-09-21T21:46:32.714Z,99.90
2022-09-21T21:49:00.386Z,99.90
2022-09-21T21:51:27.094Z,99.90
2022-09-21T21:53:53.784Z,99.90
2022-09-21T21:56:22.679Z,99.90
2022-09-21T21:58:53.660Z,99.90
2022-09-21T22:01:22.418Z,99.90
2022-09-21T22:03:53.555Z,99.90
2022-09-21T22:06:20.625Z,99.90
2022-09-21T22:08:47.370Z,99.90
2022-09-21T22:11:14.106Z,99.90
2022-09-21T22:13:41.301Z,99.90
2022-09-21T22:16:09.926Z,99.90
2022-09-21T22:18:37.188Z,99.90
2022-09-21T22:21:14.106Z,99.90
2022-09-21T22:23:40.843Z,99.90
2022-09-21T22:26:12.530Z,99.90
2022-09-21T22:28:43.253Z,99.90
2022-09-21T22:31:12.186Z,99.90
2022-09-21T22:33:39.059Z,99.90
2022-09-21T22:36:07.502Z,99.90
2022-09-21T22:38:37.160Z,99.90
2022-09-21T22:41:13.275Z,99.90
2022-09-21T22:43:40.281Z,99.90
2022-09-21T22:46:07.328Z,99.90
2022-09-21T22:48:35.109Z,99.90
2022-09-21T22:51:02.095Z,99.90
2022-09-21T22:53:28.971Z,99.90
2022-09-21T22:56:12.931Z,99.90
2022-09-21T22:58:43.965Z,99.90
2022-09-21T23:01:14.491Z,99.90
2022-09-21T23:03:41.740Z,99.90
2022-09-21T23:06:10.066Z,99.90
2022-09-21T23:08:36.931Z,99.90
2022-09-21T23:11:31.264Z,99.90
2022-09-21T23:13:58.615Z,99.90
2022-09-21T23:16:26.289Z,99.90
2022-09-21T23:18:53.729Z,99.90
2022-09-21T23:21:22.198Z,99.90
2022-09-21T23:23:49.119Z,99.90
2022-09-21T23:26:20.300Z,99.90
2022-09-21T23:28:51.534Z,99.90
2022-09-21T23:31:18.440Z,99.90
2022-09-21T23:33:46.909Z,99.90
2022-09-21T23:36:16.228Z,99.90
2022-09-21T23:38:42.972Z,99.90
2022-09-21T23:41:11.417Z,99.90
2022-09-21T23:43:38.778Z,99.90
2022-09-21T23:46:05.903Z,99.90
2022-09-21T23:48:32.799Z,99.90
2022-09-21T23:50:59.651Z,99.90
2022-09-21T23:53:27.908Z,99.90
2022-09-21T23:55:55.081Z,99.90
2022-09-21T23:58:22.056Z,99.90
